sensor_id;sensor_type;location;lat;lon;timestamp;temperature;humidity
19947;DHT22;10135;50.702;7.276;2022-12-10T06:31:10;3.10;63.70
19947;DHT22;10135;50.702;7.276;2022-12-10T06:33:10;3.20;63.80
19947;DHT22;10135;50.702;7.276;2022-12-10T06:35:11;3.20;63.80
19947;DHT22;10135;50.702;7.276;2022-12-10T06:37:12;3.20;63.80
19947;DHT22;10135;50.702;7.276;2022-12-10T06:39:12;3.20;63.80
19947;DHT22;10135;50.702;7.276;2022-12-10T06:41:15;3.20;63.80
19947;DHT22;10135;50.702;7.276;2022-12-10T06:43:17;3.20;63.80
19947;DHT22;10135;50.702;7.276;2022-12-10T06:45:17;3.20;63.80
19947;DHT22;10135;50.702;7.276;2022-12-10T06:47:18;3.20;63.80
19947;DHT22;10135;50.702;7.276;2022-12-10T06:49:19;3.20;63.70
19947;DHT22;10135;50.702;7.276;2022-12-10T06:51:19;3.20;63.70
19947;DHT22;10135;50.702;7.276;2022-12-10T06:53:20;3.20;63.70
19947;DHT22;10135;50.702;7.276;2022-12-10T06:55:20;3.20;63.70
19947;DHT22;10135;50.702;7.276;2022-12-10T06:57:22;3.20;63.70
19947;DHT22;10135;50.702;7.276;2022-12-10T06:59:22;3.20;63.60
19947;DHT22;10135;50.702;7.276;2022-12-10T07:01:24;3.20;63.60
19947;DHT22;10135;50.702;7.276;2022-12-10T07:03:28;3.20;63.60
19947;DHT22;10135;50.702;7.276;2022-12-10T07:05:28;3.10;63.50
19947;DHT22;10135;50.702;7.276;2022-12-10T07:07:29;3.20;63.60
19947;DHT22;10135;50.702;7.276;2022-12-10T07:09:30;3.10;63.60
19947;DHT22;10135;50.702;7.276;2022-12-10T07:11:32;3.10;63.50
19947;DHT22;10135;50.702;7.276;2022-12-10T07:13:33;3.10;63.50
19947;DHT22;10135;50.702;7.276;2022-12-10T07:15:34;3.10;63.60
19947;DHT22;10135;50.702;7.276;2022-12-10T07:17:35;3.10;63.50
19947;DHT22;10135;50.702;7.276;2022-12-10T07:19:35;3.10;63.50
19947;DHT22;10135;50.702;7.276;2022-12-10T07:21:37;3.10;63.60
19947;DHT22;10135;50.702;7.276;2022-12-10T07:23:40;3.10;63.60
19947;DHT22;10135;50.702;7.276;2022-12-10T07:25:40;3.00;63.60
19947;DHT22;10135;50.702;7.276;2022-12-10T07:27:41;3.10;63.70
19947;DHT22;10135;50.702;7.276;2022-12-10T07:29:43;3.00;63.70
19947;DHT22;10135;50.702;7.276;2022-12-10T07:31:45;3.10;63.70
19947;DHT22;10135;50.702;7.276;2022-12-10T07:33:49;3.10;63.70
19947;DHT22;10135;50.702;7.276;2022-12-10T07:35:50;3.10;63.70
19947;DHT22;10135;50.702;7.276;2022-12-10T07:37:51;3.10;63.70
19947;DHT22;10135;50.702;7.276;2022-12-10T07:39:52;3.10;63.70
19947;DHT22;10135;50.702;7.276;2022-12-10T07:41:53;3.00;63.70
19947;DHT22;10135;50.702;7.276;2022-12-10T07:43:54;3.00;63.70
19947;DHT22;10135;50.702;7.276;2022-12-10T07:45:54;3.10;63.70
19947;DHT22;10135;50.702;7.276;2022-12-10T07:47:55;3.10;64.50
19947;DHT22;10135;50.702;7.276;2022-12-10T07:49:56;3.10;63.70
19947;DHT22;10135;50.702;7.276;2022-12-10T07:51:56;3.10;63.80
19947;DHT22;10135;50.702;7.276;2022-12-10T07:53:57;3.10;63.70
19947;DHT22;10135;50.702;7.276;2022-12-10T07:55:58;3.10;63.70
19947;DHT22;10135;50.702;7.276;2022-12-10T07:57:58;3.10;63.70
19947;DHT22;10135;50.702;7.276;2022-12-10T07:59:59;3.10;63.70
19947;DHT22;10135;50.702;7.276;2022-12-10T08:01:59;3.10;63.70
19947;DHT22;10135;50.702;7.276;2022-12-10T08:04:00;3.10;63.70
19947;DHT22;10135;50.702;7.276;2022-12-10T08:06:09;3.10;63.70
19947;DHT22;10135;50.702;7.276;2022-12-10T08:08:11;3.10;63.70
19947;DHT22;10135;50.702;7.276;2022-12-10T08:10:12;3.10;63.70
19947;DHT22;10135;50.702;7.276;2022-12-10T08:12:13;3.10;63.70
19947;DHT22;10135;50.702;7.276;2022-12-10T08:14:13;3.10;63.70
19947;DHT22;10135;50.702;7.276;2022-12-10T08:16:16;3.10;63.70
19947;DHT22;10135;50.702;7.276;2022-12-10T08:18:20;3.10;63.70
19947;DHT22;10135;50.702;7.276;2022-12-10T08:20:22;3.10;63.70
19947;DHT22;10135;50.702;7.276;2022-12-10T08:22:23;3.10;63.70
19947;DHT22;10135;50.702;7.276;2022-12-10T08:24:24;3.10;63.70
19947;DHT22;10135;50.702;7.276;2022-12-10T08:26:27;3.10;63.70
19947;DHT22;10135;50.702;7.276;2022-12-10T08:28:29;3.10;64.50
19947;DHT22;10135;50.702;7.276;2022-12-10T08:30:30;3.10;63.70
19947;DHT22;10135;50.702;7.276;2022-12-10T08:32:31;3.10;63.70
19947;DHT22;10135;50.702;7.276;2022-12-10T08:34:31;3.20;63.70
19947;DHT22;10135;50.702;7.276;2022-12-10T08:36:32;3.20;63.70
19947;DHT22;10135;50.702;7.276;2022-12-10T08:38:33;3.20;63.70
19947;DHT22;10135;50.702;7.276;2022-12-10T08:40:39;3.20;63.70
19947;DHT22;10135;50.702;7.276;2022-12-10T08:42:40;3.20;63.70
19947;DHT22;10135;50.702;7.276;2022-12-10T08:44:41;3.20;63.70
19947;DHT22;10135;50.702;7.276;2022-12-10T08:46:42;3.20;63.70
19947;DHT22;10135;50.702;7.276;2022-12-10T08:48:42;3.20;63.70
19947;DHT22;10135;50.702;7.276;2022-12-10T08:50:44;3.30;63.80
19947;DHT22;10135;50.702;7.276;2022-12-10T08:52:45;3.30;63.80
19947;DHT22;10135;50.702;7.276;2022-12-10T08:54:46;3.30;63.80
19947;DHT22;10135;50.702;7.276;2022-12-10T08:56:47;3.30;63.80
19947;DHT22;10135;50.702;7.276;2022-12-10T08:58:47;3.30;63.80
19947;DHT22;10135;50.702;7.276;2022-12-10T09:00:49;3.30;63.80
19947;DHT22;10135;50.702;7.276;2022-12-10T09:02:50;3.30;63.70
19947;DHT22;10135;50.702;7.276;2022-12-10T09:04:50;3.40;63.80
19947;DHT22;10135;50.702;7.276;2022-12-10T09:06:51;3.40;63.80
19947;DHT22;10135;50.702;7.276;2022-12-10T09:08:53;3.40;63.80
19947;DHT22;10135;50.702;7.276;2022-12-10T09:10:54;3.40;63.80
19947;DHT22;10135;50.702;7.276;2022-12-10T09:12:54;3.40;63.80
19947;DHT22;10135;50.702;7.276;2022-12-10T09:14:55;3.40;63.70
19947;DHT22;10135;50.702;7.276;2022-12-10T09:16:56;3.40;63.80
19947;DHT22;10135;50.702;7.276;2022-12-10T09:18:57;3.40;63.80
19947;DHT22;10135;50.702;7.276;2022-12-10T09:20:58;3.40;63.80
19947;DHT22;10135;50.702;7.276;2022-12-10T09:22:59;3.50;63.80
19947;DHT22;10135;50.702;7.276;2022-12-10T09:25:00;3.50;63.80
19947;DHT22;10135;50.702;7.276;2022-12-10T09:27:01;3.50;63.80
19947;DHT22;10135;50.702;7.276;2022-12-10T09:29:02;3.50;63.80
19947;DHT22;10135;50.702;7.276;2022-12-10T09:31:05;3.60;63.80
19947;DHT22;10135;50.702;7.276;2022-12-10T09:33:07;3.60;63.80
19947;DHT22;10135;50.702;7.276;2022-12-10T09:35:08;3.60;63.70
19947;DHT22;10135;50.702;7.276;2022-12-10T09:37:08;3.60;63.70
19947;DHT22;10135;50.702;7.276;2022-12-10T09:39:09;3.60;63.60
19947;DHT22;10135;50.702;7.276;2022-12-10T09:49:01;3.70;63.60
19947;DHT22;10135;50.702;7.276;2022-12-10T09:51:14;3.70;63.60
19947;DHT22;10135;50.702;7.276;2022-12-10T09:53:24;3.80;63.60
19947;DHT22;10135;50.702;7.276;2022-12-10T09:55:35;3.80;63.60
19947;DHT22;10135;50.702;7.276;2022-12-10T09:57:41;3.80;63.50
19947;DHT22;10135;50.702;7.276;2022-12-10T09:59:48;3.80;63.50
19947;DHT22;10135;50.702;7.276;2022-12-10T10:02:00;3.90;63.60
19947;DHT22;10135;50.702;7.276;2022-12-10T10:04:11;3.90;63.50
19947;DHT22;10135;50.702;7.276;2022-12-10T10:06:12;3.90;63.50
19947;DHT22;10135;50.702;7.276;2022-12-10T10:08:28;3.90;63.40
19947;DHT22;10135;50.702;7.276;2022-12-10T10:10:36;3.90;63.20
19947;DHT22;10135;50.702;7.276;2022-12-10T10:12:39;3.90;63.30
19947;DHT22;10135;50.702;7.276;2022-12-10T10:14:43;3.90;63.20
19947;DHT22;10135;50.702;7.276;2022-12-10T10:16:49;3.90;63.20
19947;DHT22;10135;50.702;7.276;2022-12-10T10:18:58;4.00;63.20
19947;DHT22;10135;50.702;7.276;2022-12-10T10:21:13;4.00;63.30
19947;DHT22;10135;50.702;7.276;2022-12-10T10:23:20;4.00;63.20
19947;DHT22;10135;50.702;7.276;2022-12-10T10:25:26;4.00;63.10
19947;DHT22;10135;50.702;7.276;2022-12-10T10:27:30;4.00;63.10
19947;DHT22;10135;50.702;7.276;2022-12-10T10:29:32;4.00;63.10
19947;DHT22;10135;50.702;7.276;2022-12-10T10:31:36;4.00;63.10
19947;DHT22;10135;50.702;7.276;2022-12-10T10:33:52;4.00;63.10
19947;DHT22;10135;50.702;7.276;2022-12-10T10:35:57;4.00;62.90
19947;DHT22;10135;50.702;7.276;2022-12-10T10:38:13;4.10;63.10
19947;DHT22;10135;50.702;7.276;2022-12-10T10:40:39;4.10;62.90
19947;DHT22;10135;50.702;7.276;2022-12-10T10:42:43;4.10;62.90
19947;DHT22;10135;50.702;7.276;2022-12-10T10:44:45;4.10;63.00
19947;DHT22;10135;50.702;7.276;2022-12-10T10:46:48;4.10;63.00
19947;DHT22;10135;50.702;7.276;2022-12-10T10:48:51;4.10;62.90
19947;DHT22;10135;50.702;7.276;2022-12-10T10:53:29;4.10;62.70
19947;DHT22;10135;50.702;7.276;2022-12-10T10:55:32;4.10;62.80
19947;DHT22;10135;50.702;7.276;2022-12-10T10:57:36;4.10;63.00
19947;DHT22;10135;50.702;7.276;2022-12-10T10:59:37;4.20;62.90
19947;DHT22;10135;50.702;7.276;2022-12-10T11:01:48;4.10;62.80
19947;DHT22;10135;50.702;7.276;2022-12-10T11:03:58;4.20;62.80
19947;DHT22;10135;50.702;7.276;2022-12-10T11:06:00;4.20;62.90
19947;DHT22;10135;50.702;7.276;2022-12-10T11:08:13;4.20;62.90
19947;DHT22;10135;50.702;7.276;2022-12-10T11:10:21;4.20;62.90
19947;DHT22;10135;50.702;7.276;2022-12-10T11:12:29;4.20;62.90
19947;DHT22;10135;50.702;7.276;2022-12-10T11:14:43;4.20;62.60
19947;DHT22;10135;50.702;7.276;2022-12-10T11:16:46;4.20;62.70
19947;DHT22;10135;50.702;7.276;2022-12-10T11:19:02;4.20;62.80
19947;DHT22;10135;50.702;7.276;2022-12-10T11:21:15;4.20;62.60
19947;DHT22;10135;50.702;7.276;2022-12-10T11:23:19;4.30;62.70
19947;DHT22;10135;50.702;7.276;2022-12-10T11:25:32;4.20;62.70
19947;DHT22;10135;50.702;7.276;2022-12-10T11:27:59;4.20;62.50
19947;DHT22;10135;50.702;7.276;2022-12-10T11:30:22;4.20;62.50
19947;DHT22;10135;50.702;7.276;2022-12-10T11:37:38;4.20;62.40
19947;DHT22;10135;50.702;7.276;2022-12-10T11:42:34;4.20;62.40
19947;DHT22;10135;50.702;7.276;2022-12-10T11:44:47;4.20;62.40
19947;DHT22;10135;50.702;7.276;2022-12-10T11:47:47;4.20;62.60
19947;DHT22;10135;50.702;7.276;2022-12-10T11:50:23;4.20;62.30
19947;DHT22;10135;50.702;7.276;2022-12-10T11:54:54;4.20;62.60
19947;DHT22;10135;50.702;7.276;2022-12-10T11:57:13;4.20;62.30
19947;DHT22;10135;50.702;7.276;2022-12-10T11:59:41;4.20;62.40
19947;DHT22;10135;50.702;7.276;2022-12-10T12:07:12;4.20;62.50
19947;DHT22;10135;50.702;7.276;2022-12-10T12:14:49;4.20;62.40
19947;DHT22;10135;50.702;7.276;2022-12-10T12:17:08;4.30;62.40
19947;DHT22;10135;50.702;7.276;2022-12-10T12:19:24;4.30;62.40
19947;DHT22;10135;50.702;7.276;2022-12-10T12:21:32;4.30;62.30
19947;DHT22;10135;50.702;7.276;2022-12-10T12:23:45;4.30;62.50
19947;DHT22;10135;50.702;7.276;2022-12-10T12:25:49;4.20;62.40
19947;DHT22;10135;50.702;7.276;2022-12-10T12:30:27;4.20;62.20
19947;DHT22;10135;50.702;7.276;2022-12-10T12:35:03;4.30;62.30
19947;DHT22;10135;50.702;7.276;2022-12-10T12:37:12;4.30;62.20
19947;DHT22;10135;50.702;7.276;2022-12-10T12:39:32;4.30;62.30
19947;DHT22;10135;50.702;7.276;2022-12-10T12:44:19;4.30;62.20
19947;DHT22;10135;50.702;7.276;2022-12-10T12:46:35;4.30;62.00
19947;DHT22;10135;50.702;7.276;2022-12-10T12:51:06;4.30;62.20
19947;DHT22;10135;50.702;7.276;2022-12-10T12:53:20;4.30;62.20
19947;DHT22;10135;50.702;7.276;2022-12-10T13:00:43;4.20;62.20
19947;DHT22;10135;50.702;7.276;2022-12-10T13:03:05;4.20;62.20
19947;DHT22;10135;50.702;7.276;2022-12-10T13:05:21;4.20;62.00
19947;DHT22;10135;50.702;7.276;2022-12-10T13:07:26;4.20;62.30
19947;DHT22;10135;50.702;7.276;2022-12-10T13:09:29;4.20;62.20
19947;DHT22;10135;50.702;7.276;2022-12-10T13:11:35;4.20;62.20
19947;DHT22;10135;50.702;7.276;2022-12-10T13:13:42;4.20;62.20
19947;DHT22;10135;50.702;7.276;2022-12-10T13:18:45;4.30;62.00
19947;DHT22;10135;50.702;7.276;2022-12-10T13:25:41;4.30;62.20
19947;DHT22;10135;50.702;7.276;2022-12-10T13:27:56;4.30;61.90
19947;DHT22;10135;50.702;7.276;2022-12-10T13:30:05;4.30;62.00
19947;DHT22;10135;50.702;7.276;2022-12-10T13:34:35;4.30;62.10
19947;DHT22;10135;50.702;7.276;2022-12-10T13:41:07;4.30;62.00
19947;DHT22;10135;50.702;7.276;2022-12-10T13:43:36;4.30;62.20
19947;DHT22;10135;50.702;7.276;2022-12-10T13:46:32;4.20;62.00
19947;DHT22;10135;50.702;7.276;2022-12-10T13:48:34;4.30;61.80
19947;DHT22;10135;50.702;7.276;2022-12-10T13:50:53;4.30;62.10
19947;DHT22;10135;50.702;7.276;2022-12-10T13:53:28;4.20;61.80
19947;DHT22;10135;50.702;7.276;2022-12-10T13:56:05;4.30;61.90
19947;DHT22;10135;50.702;7.276;2022-12-10T14:03:20;4.20;61.80
19947;DHT22;10135;50.702;7.276;2022-12-10T14:08:25;4.10;61.60
19947;DHT22;10135;50.702;7.276;2022-12-10T14:10:33;4.10;61.80
19947;DHT22;10135;50.702;7.276;2022-12-10T14:12:39;4.10;61.90
19947;DHT22;10135;50.702;7.276;2022-12-10T14:14:47;4.10;61.90
19947;DHT22;10135;50.702;7.276;2022-12-10T14:16:54;4.10;62.00
19947;DHT22;10135;50.702;7.276;2022-12-10T14:18:59;4.10;61.90
19947;DHT22;10135;50.702;7.276;2022-12-10T14:21:05;4.10;61.80
19947;DHT22;10135;50.702;7.276;2022-12-10T14:23:27;4.10;62.00
19947;DHT22;10135;50.702;7.276;2022-12-10T14:25:42;4.10;61.70
19947;DHT22;10135;50.702;7.276;2022-12-10T14:27:47;4.10;61.90
19947;DHT22;10135;50.702;7.276;2022-12-10T14:30:02;4.10;61.80
19947;DHT22;10135;50.702;7.276;2022-12-10T14:32:06;4.10;61.90
19947;DHT22;10135;50.702;7.276;2022-12-10T14:34:22;4.10;61.80
19947;DHT22;10135;50.702;7.276;2022-12-10T14:36:32;4.10;61.80
19947;DHT22;10135;50.702;7.276;2022-12-10T14:38:38;4.10;61.90
19947;DHT22;10135;50.702;7.276;2022-12-10T14:40:40;4.10;61.80
19947;DHT22;10135;50.702;7.276;2022-12-10T14:42:42;4.10;61.90
19947;DHT22;10135;50.702;7.276;2022-12-10T14:44:44;4.10;61.80
19947;DHT22;10135;50.702;7.276;2022-12-10T14:46:48;4.10;61.90
19947;DHT22;10135;50.702;7.276;2022-12-10T14:48:50;4.10;61.80
19947;DHT22;10135;50.702;7.276;2022-12-10T14:51:04;4.10;61.80
19947;DHT22;10135;50.702;7.276;2022-12-10T14:53:20;4.10;61.70
19947;DHT22;10135;50.702;7.276;2022-12-10T14:55:24;4.00;61.70
19947;DHT22;10135;50.702;7.276;2022-12-10T14:57:34;4.00;61.70
19947;DHT22;10135;50.702;7.276;2022-12-10T15:00:00;4.00;61.80
19947;DHT22;10135;50.702;7.276;2022-12-10T15:02:26;4.00;61.60
19947;DHT22;10135;50.702;7.276;2022-12-10T15:04:41;4.00;61.60
19947;DHT22;10135;50.702;7.276;2022-12-10T15:06:46;4.00;61.60
19947;DHT22;10135;50.702;7.276;2022-12-10T15:08:48;4.00;61.80
19947;DHT22;10135;50.702;7.276;2022-12-10T15:10:54;4.00;61.80
19947;DHT22;10135;50.702;7.276;2022-12-10T15:12:57;4.00;61.80
19947;DHT22;10135;50.702;7.276;2022-12-10T15:15:04;3.90;61.80
19947;DHT22;10135;50.702;7.276;2022-12-10T15:17:39;3.90;61.70
19947;DHT22;10135;50.702;7.276;2022-12-10T15:19:42;4.00;61.70
19947;DHT22;10135;50.702;7.276;2022-12-10T15:21:52;3.90;61.80
19947;DHT22;10135;50.702;7.276;2022-12-10T15:24:35;3.90;61.80
19947;DHT22;10135;50.702;7.276;2022-12-10T15:26:43;3.90;61.50
19947;DHT22;10135;50.702;7.276;2022-12-10T15:28:48;3.90;61.70
19947;DHT22;10135;50.702;7.276;2022-12-10T15:30:51;3.90;61.70
19947;DHT22;10135;50.702;7.276;2022-12-10T15:32:54;3.80;61.70
19947;DHT22;10135;50.702;7.276;2022-12-10T15:35:00;3.80;61.70
19947;DHT22;10135;50.702;7.276;2022-12-10T15:37:04;3.80;61.70
19947;DHT22;10135;50.702;7.276;2022-12-10T15:41:49;3.80;61.70
19947;DHT22;10135;50.702;7.276;2022-12-10T15:44:19;3.80;61.70
19947;DHT22;10135;50.702;7.276;2022-12-10T15:46:29;3.80;61.60
19947;DHT22;10135;50.702;7.276;2022-12-10T15:48:30;3.80;61.80
19947;DHT22;10135;50.702;7.276;2022-12-10T15:50:31;3.70;61.80
19947;DHT22;10135;50.702;7.276;2022-12-10T15:52:32;3.70;61.80
19947;DHT22;10135;50.702;7.276;2022-12-10T15:54:35;3.70;61.70
19947;DHT22;10135;50.702;7.276;2022-12-10T15:56:37;3.70;61.80
19947;DHT22;10135;50.702;7.276;2022-12-10T15:58:39;3.70;61.80
19947;DHT22;10135;50.702;7.276;2022-12-10T16:00:41;3.70;61.70
19947;DHT22;10135;50.702;7.276;2022-12-10T16:05:19;3.70;61.70
19947;DHT22;10135;50.702;7.276;2022-12-10T16:07:20;3.70;61.70
19947;DHT22;10135;50.702;7.276;2022-12-10T16:09:20;3.70;61.80
19947;DHT22;10135;50.702;7.276;2022-12-10T16:11:21;3.70;61.80
19947;DHT22;10135;50.702;7.276;2022-12-10T16:13:26;3.70;61.80
19947;DHT22;10135;50.702;7.276;2022-12-10T16:15:33;3.60;61.70
19947;DHT22;10135;50.702;7.276;2022-12-10T16:17:39;3.60;61.70
19947;DHT22;10135;50.702;7.276;2022-12-10T16:19:40;3.60;61.80
19947;DHT22;10135;50.702;7.276;2022-12-10T16:21:40;3.70;61.90
19947;DHT22;10135;50.702;7.276;2022-12-10T16:23:41;3.70;61.90
19947;DHT22;10135;50.702;7.276;2022-12-10T16:25:43;3.70;61.90
19947;DHT22;10135;50.702;7.276;2022-12-10T16:27:45;3.70;61.80
19947;DHT22;10135;50.702;7.276;2022-12-10T16:29:45;3.60;61.70
19947;DHT22;10135;50.702;7.276;2022-12-10T16:31:46;3.60;61.70
19947;DHT22;10135;50.702;7.276;2022-12-10T16:33:47;3.60;61.90
19947;DHT22;10135;50.702;7.276;2022-12-10T16:35:51;3.60;61.70
19947;DHT22;10135;50.702;7.276;2022-12-10T16:37:54;3.60;61.70
19947;DHT22;10135;50.702;7.276;2022-12-10T16:39:55;3.60;61.80
19947;DHT22;10135;50.702;7.276;2022-12-10T16:41:56;3.60;61.80
19947;DHT22;10135;50.702;7.276;2022-12-10T16:43:57;3.60;61.80
19947;DHT22;10135;50.702;7.276;2022-12-10T16:45:58;3.60;61.80
19947;DHT22;10135;50.702;7.276;2022-12-10T16:47:58;3.60;61.80
19947;DHT22;10135;50.702;7.276;2022-12-10T16:49:59;3.70;61.90
19947;DHT22;10135;50.702;7.276;2022-12-10T16:52:00;3.60;61.90
19947;DHT22;10135;50.702;7.276;2022-12-10T16:54:00;3.60;61.80
19947;DHT22;10135;50.702;7.276;2022-12-10T16:56:01;3.60;61.80
19947;DHT22;10135;50.702;7.276;2022-12-10T16:58:08;3.60;61.70
19947;DHT22;10135;50.702;7.276;2022-12-10T17:00:18;3.60;61.70
19947;DHT22;10135;50.702;7.276;2022-12-10T17:02:21;3.60;61.90
19947;DHT22;10135;50.702;7.276;2022-12-10T17:04:22;3.60;61.70
19947;DHT22;10135;50.702;7.276;2022-12-10T17:06:22;3.60;61.80
19947;DHT22;10135;50.702;7.276;2022-12-10T17:08:25;3.60;62.50
19947;DHT22;10135;50.702;7.276;2022-12-10T17:10:27;3.60;61.80
19947;DHT22;10135;50.702;7.276;2022-12-10T17:12:46;3.60;61.80
19947;DHT22;10135;50.702;7.276;2022-12-10T17:14:47;3.60;61.80
19947;DHT22;10135;50.702;7.276;2022-12-10T17:16:49;3.60;61.80
19947;DHT22;10135;50.702;7.276;2022-12-10T17:18:51;3.60;61.80
19947;DHT22;10135;50.702;7.276;2022-12-10T17:20:51;3.60;61.80
19947;DHT22;10135;50.702;7.276;2022-12-10T17:22:52;3.50;61.90
19947;DHT22;10135;50.702;7.276;2022-12-10T17:24:53;3.60;61.90
19947;DHT22;10135;50.702;7.276;2022-12-10T17:26:55;3.50;61.80
19947;DHT22;10135;50.702;7.276;2022-12-10T17:29:29;3.50;61.70
19947;DHT22;10135;50.702;7.276;2022-12-10T17:31:35;3.60;61.80
19947;DHT22;10135;50.702;7.276;2022-12-10T17:33:36;3.50;61.70
19947;DHT22;10135;50.702;7.276;2022-12-10T17:35:37;3.50;61.70
19947;DHT22;10135;50.702;7.276;2022-12-10T17:37:40;3.50;61.70
19947;DHT22;10135;50.702;7.276;2022-12-10T17:39:41;3.50;61.80
19947;DHT22;10135;50.702;7.276;2022-12-10T17:41:41;3.50;62.70
19947;DHT22;10135;50.702;7.276;2022-12-10T17:43:42;3.50;61.80
19947;DHT22;10135;50.702;7.276;2022-12-10T17:45:44;3.50;61.80
19947;DHT22;10135;50.702;7.276;2022-12-10T17:47:45;3.50;61.90
19947;DHT22;10135;50.702;7.276;2022-12-10T17:49:46;3.50;61.90
19947;DHT22;10135;50.702;7.276;2022-12-10T17:51:47;3.50;61.90
19947;DHT22;10135;50.702;7.276;2022-12-10T17:53:47;3.50;61.90
19947;DHT22;10135;50.702;7.276;2022-12-10T17:55:53;3.60;62.00
19947;DHT22;10135;50.702;7.276;2022-12-10T17:57:57;3.60;61.90
19947;DHT22;10135;50.702;7.276;2022-12-10T17:59:58;3.60;62.10
19947;DHT22;10135;50.702;7.276;2022-12-10T18:01:59;3.60;61.90
19947;DHT22;10135;50.702;7.276;2022-12-10T18:03:59;3.60;61.90
19947;DHT22;10135;50.702;7.276;2022-12-10T18:06:00;3.60;61.90
19947;DHT22;10135;50.702;7.276;2022-12-10T18:08:01;3.60;61.80
19947;DHT22;10135;50.702;7.276;2022-12-10T18:10:04;3.60;61.90
19947;DHT22;10135;50.702;7.276;2022-12-10T18:12:08;3.60;61.90
19947;DHT22;10135;50.702;7.276;2022-12-10T18:14:09;3.60;61.80
19947;DHT22;10135;50.702;7.276;2022-12-10T18:16:20;3.60;61.80
19947;DHT22;10135;50.702;7.276;2022-12-10T18:18:23;3.60;61.80
19947;DHT22;10135;50.702;7.276;2022-12-10T18:20:36;3.60;61.90
19947;DHT22;10135;50.702;7.276;2022-12-10T18:22:38;3.60;62.60
19947;DHT22;10135;50.702;7.276;2022-12-10T18:24:39;3.50;61.80
19947;DHT22;10135;50.702;7.276;2022-12-10T18:26:44;3.50;61.80
19947;DHT22;10135;50.702;7.276;2022-12-10T18:28:51;3.60;61.90
19947;DHT22;10135;50.702;7.276;2022-12-10T18:30:53;3.50;61.90
19947;DHT22;10135;50.702;7.276;2022-12-10T18:32:55;3.50;61.90
19947;DHT22;10135;50.702;7.276;2022-12-10T18:34:55;3.50;61.80
19947;DHT22;10135;50.702;7.276;2022-12-10T18:36:56;3.60;62.00
19947;DHT22;10135;50.702;7.276;2022-12-10T18:38:59;3.60;62.00
19947;DHT22;10135;50.702;7.276;2022-12-10T18:41:03;3.60;62.00
19947;DHT22;10135;50.702;7.276;2022-12-10T18:43:03;3.60;61.90
19947;DHT22;10135;50.702;7.276;2022-12-10T18:45:04;3.60;61.90
19947;DHT22;10135;50.702;7.276;2022-12-10T18:47:09;3.60;61.90
19947;DHT22;10135;50.702;7.276;2022-12-10T18:49:14;3.60;61.80
19947;DHT22;10135;50.702;7.276;2022-12-10T18:51:16;3.60;61.70
19947;DHT22;10135;50.702;7.276;2022-12-10T18:53:18;3.50;61.70
19947;DHT22;10135;50.702;7.276;2022-12-10T18:55:21;3.50;61.70
19947;DHT22;10135;50.702;7.276;2022-12-10T18:57:23;3.50;61.70
19947;DHT22;10135;50.702;7.276;2022-12-10T18:59:23;3.50;61.80
19947;DHT22;10135;50.702;7.276;2022-12-10T19:01:24;3.50;61.80
19947;DHT22;10135;50.702;7.276;2022-12-10T19:03:27;3.50;61.80
19947;DHT22;10135;50.702;7.276;2022-12-10T19:05:27;3.50;61.90
19947;DHT22;10135;50.702;7.276;2022-12-10T19:07:28;3.40;61.80
19947;DHT22;10135;50.702;7.276;2022-12-10T19:09:29;3.40;61.80
19947;DHT22;10135;50.702;7.276;2022-12-10T19:11:31;3.40;61.90
19947;DHT22;10135;50.702;7.276;2022-12-10T19:13:33;3.40;61.90
19947;DHT22;10135;50.702;7.276;2022-12-10T19:15:33;3.40;61.90
19947;DHT22;10135;50.702;7.276;2022-12-10T19:17:34;3.40;61.90
19947;DHT22;10135;50.702;7.276;2022-12-10T19:19:36;3.50;62.00
19947;DHT22;10135;50.702;7.276;2022-12-10T19:21:36;3.50;61.90
19947;DHT22;10135;50.702;7.276;2022-12-10T19:23:37;3.40;61.90
19947;DHT22;10135;50.702;7.276;2022-12-10T19:25:39;3.50;62.00
19947;DHT22;10135;50.702;7.276;2022-12-10T19:27:39;3.50;62.00
19947;DHT22;10135;50.702;7.276;2022-12-10T19:29:40;3.50;62.00
19947;DHT22;10135;50.702;7.276;2022-12-10T19:31:42;3.50;61.90
19947;DHT22;10135;50.702;7.276;2022-12-10T19:33:43;3.50;62.00
19947;DHT22;10135;50.702;7.276;2022-12-10T19:35:45;3.50;62.00
19947;DHT22;10135;50.702;7.276;2022-12-10T19:37:46;3.50;61.90
19947;DHT22;10135;50.702;7.276;2022-12-10T19:39:48;3.50;62.00
19947;DHT22;10135;50.702;7.276;2022-12-10T19:41:49;3.50;62.00
19947;DHT22;10135;50.702;7.276;2022-12-10T19:43:51;3.50;61.90
19947;DHT22;10135;50.702;7.276;2022-12-10T19:45:51;3.60;62.10
19947;DHT22;10135;50.702;7.276;2022-12-10T19:47:53;3.50;61.90
19947;DHT22;10135;50.702;7.276;2022-12-10T19:49:56;3.50;62.00
19947;DHT22;10135;50.702;7.276;2022-12-10T19:51:57;3.60;62.10
19947;DHT22;10135;50.702;7.276;2022-12-10T19:53:57;3.60;62.00
19947;DHT22;10135;50.702;7.276;2022-12-10T19:55:58;3.60;62.00
19947;DHT22;10135;50.702;7.276;2022-12-10T19:57:59;3.60;62.00
19947;DHT22;10135;50.702;7.276;2022-12-10T19:59:59;3.60;61.90
19947;DHT22;10135;50.702;7.276;2022-12-10T20:02:00;3.60;62.00
19947;DHT22;10135;50.702;7.276;2022-12-10T20:04:01;3.60;61.90
19947;DHT22;10135;50.702;7.276;2022-12-10T20:06:01;3.60;62.00
19947;DHT22;10135;50.702;7.276;2022-12-10T20:08:02;3.60;61.90
19947;DHT22;10135;50.702;7.276;2022-12-10T20:10:03;3.60;61.90
19947;DHT22;10135;50.702;7.276;2022-12-10T20:12:05;3.60;61.90
19947;DHT22;10135;50.702;7.276;2022-12-10T20:14:05;3.60;61.90
19947;DHT22;10135;50.702;7.276;2022-12-10T20:18:25;3.60;61.90
19947;DHT22;10135;50.702;7.276;2022-12-10T20:20:28;3.60;61.90
19947;DHT22;10135;50.702;7.276;2022-12-10T20:22:29;3.60;61.90
19947;DHT22;10135;50.702;7.276;2022-12-10T20:24:30;3.60;61.90
19947;DHT22;10135;50.702;7.276;2022-12-10T20:26:39;3.60;61.90
19947;DHT22;10135;50.702;7.276;2022-12-10T20:28:42;3.60;61.90
19947;DHT22;10135;50.702;7.276;2022-12-10T20:30:43;3.50;61.80
19947;DHT22;10135;50.702;7.276;2022-12-10T20:32:43;3.50;61.80
19947;DHT22;10135;50.702;7.276;2022-12-10T20:34:44;3.50;61.90
19947;DHT22;10135;50.702;7.276;2022-12-10T20:36:45;3.50;61.90
19947;DHT22;10135;50.702;7.276;2022-12-10T20:38:46;3.60;62.00
19947;DHT22;10135;50.702;7.276;2022-12-10T20:40:47;3.60;62.00
19947;DHT22;10135;50.702;7.276;2022-12-10T20:42:48;3.60;62.70
19947;DHT22;10135;50.702;7.276;2022-12-10T20:44:49;3.60;61.90
19947;DHT22;10135;50.702;7.276;2022-12-10T20:46:51;3.60;61.90
19947;DHT22;10135;50.702;7.276;2022-12-10T20:48:53;3.60;62.00
19947;DHT22;10135;50.702;7.276;2022-12-10T20:50:53;3.60;62.00
19947;DHT22;10135;50.702;7.276;2022-12-10T20:52:54;3.60;61.90
19947;DHT22;10135;50.702;7.276;2022-12-10T20:54:55;3.60;61.90
19947;DHT22;10135;50.702;7.276;2022-12-10T20:56:55;3.60;62.00
19947;DHT22;10135;50.702;7.276;2022-12-10T20:58:59;3.60;62.10
19947;DHT22;10135;50.702;7.276;2022-12-10T21:01:00;3.60;62.00
19947;DHT22;10135;50.702;7.276;2022-12-10T21:03:02;3.60;61.90
19947;DHT22;10135;50.702;7.276;2022-12-10T21:05:03;3.60;61.90
19947;DHT22;10135;50.702;7.276;2022-12-10T21:07:03;3.60;61.90
19947;DHT22;10135;50.702;7.276;2022-12-10T21:09:04;3.50;61.80